createdAt,value
2018-03-30T06:27:43.006Z,71.00
2018-03-30T06:30:09.079Z,70.80
2018-03-30T06:32:35.039Z,70.60
2018-03-30T06:35:01.081Z,70.80
2018-03-30T06:37:27.073Z,70.70
2018-03-30T06:39:53.803Z,70.90
2018-03-30T06:42:19.802Z,70.90
2018-03-30T06:44:45.800Z,70.90
2018-03-30T06:47:11.771Z,71.10
2018-03-30T06:49:38.531Z,70.60
2018-03-30T06:52:05.263Z,70.50
2018-03-30T06:54:31.982Z,70.30
2018-03-30T06:56:57.996Z,70.30
2018-03-30T06:59:23.991Z,70.40
2018-03-30T07:01:49.991Z,70.40
2018-03-30T07:04:16.044Z,70.20
2018-03-30T07:06:42.064Z,70.20
2018-03-30T07:09:08.069Z,70.20
2018-03-30T07:11:34.075Z,70.40
2018-03-30T07:14:00.811Z,70.00
2018-03-30T07:16:26.848Z,70.10
2018-03-30T07:18:52.937Z,71.30
2018-03-30T07:21:18.951Z,67.90
2018-03-30T07:23:44.948Z,68.50
2018-03-30T07:26:10.959Z,68.60
2018-03-30T07:28:36.990Z,68.60
2018-03-30T07:31:03.014Z,69.20
2018-03-30T07:33:29.007Z,69.10
2018-03-30T07:35:55.747Z,69.40
2018-03-30T07:38:21.748Z,69.40
2018-03-30T07:40:48.512Z,68.90
2018-03-30T07:43:14.475Z,68.90
2018-03-30T07:45:40.467Z,68.90
2018-03-30T07:48:07.178Z,68.30
2018-03-30T07:50:33.227Z,68.40
2018-03-30T07:52:59.964Z,68.10
2018-03-30T07:55:26.712Z,67.60
2018-03-30T07:57:52.740Z,67.70
2018-03-30T08:00:18.774Z,68.00
2018-03-30T08:02:44.787Z,67.50
2018-03-30T08:05:10.767Z,67.70
2018-03-30T08:07:36.788Z,68.10
2018-03-30T08:10:03.149Z,68.20
2018-03-30T08:12:29.907Z,67.40
2018-03-30T08:14:55.916Z,67.30
2018-03-30T08:17:22.667Z,67.90
2018-03-30T08:19:48.656Z,67.90
2018-03-30T08:22:14.654Z,68.40
2018-03-30T08:24:40.655Z,67.10
2018-03-30T08:27:06.666Z,66.70
2018-03-30T08:29:32.687Z,67.00
2018-03-30T08:31:58.658Z,66.20
2018-03-30T08:34:24.654Z,66.80
2018-03-30T08:36:50.626Z,66.30
2018-03-30T08:39:16.623Z,66.10
2018-03-30T08:41:42.606Z,66.00
2018-03-30T08:44:08.686Z,65.60
2018-03-30T08:46:34.706Z,65.20
2018-03-30T08:49:00.698Z,65.50
2018-03-30T08:51:26.679Z,65.40
2018-03-30T08:53:52.655Z,64.80
2018-03-30T08:56:18.683Z,65.20
2018-03-30T08:58:44.708Z,65.20
2018-03-30T09:01:10.699Z,65.40
2018-03-30T09:03:36.703Z,65.10
2018-03-30T09:06:03.422Z,64.60
2018-03-30T09:08:29.420Z,64.70
2018-03-30T09:10:55.407Z,65.00
2018-03-30T09:13:21.411Z,64.90
2018-03-30T09:15:47.419Z,64.80
2018-03-30T09:18:16.172Z,64.40
2018-03-30T09:20:42.159Z,64.40
2018-03-30T09:23:08.159Z,64.10
2018-03-30T09:25:34.150Z,64.10
2018-03-30T09:28:00.131Z,63.50
2018-03-30T09:30:26.105Z,64.20
2018-03-30T09:32:52.065Z,64.20
2018-03-30T09:35:18.776Z,63.50
2018-03-30T09:37:45.024Z,63.50
2018-03-30T09:40:11.747Z,63.50
2018-03-30T09:42:37.697Z,63.40
2018-03-30T09:45:04.424Z,63.00
2018-03-30T09:47:31.116Z,63.00
2018-03-30T09:49:57.114Z,63.10
2018-03-30T09:52:23.100Z,62.70
2018-03-30T09:54:49.094Z,63.60
2018-03-30T09:57:15.099Z,63.40
2018-03-30T09:59:41.085Z,63.20
2018-03-30T10:02:07.806Z,61.70
2018-03-30T10:04:33.915Z,61.70
2018-03-30T10:06:59.903Z,62.70
2018-03-30T10:09:25.928Z,62.50
2018-03-30T10:11:51.901Z,62.60
2018-03-30T10:14:17.907Z,62.70
2018-03-30T10:16:44.203Z,62.00
2018-03-30T10:19:10.210Z,62.50
2018-03-30T10:21:36.198Z,62.30
2018-03-30T10:24:02.206Z,62.40
2018-03-30T10:26:28.186Z,63.10
2018-03-30T10:28:54.145Z,62.50
2018-03-30T10:31:20.143Z,62.70
2018-03-30T10:33:46.129Z,63.00
2018-03-30T10:36:12.866Z,62.50
2018-03-30T10:38:38.899Z,62.50
2018-03-30T10:41:04.919Z,62.10
2018-03-30T10:43:31.669Z,61.90
2018-03-30T10:45:57.794Z,61.90
2018-03-30T10:48:23.852Z,61.40
2018-03-30T10:50:50.044Z,62.10
2018-03-30T10:53:16.861Z,61.70
2018-03-30T10:55:42.841Z,61.80
2018-03-30T10:58:08.809Z,61.30
2018-03-30T11:00:35.570Z,61.70
2018-03-30T11:03:02.286Z,61.80
2018-03-30T11:05:28.278Z,61.70
2018-03-30T11:07:54.264Z,62.00
2018-03-30T11:10:20.974Z,61.20
2018-03-30T11:12:46.975Z,61.30
2018-03-30T11:15:13.014Z,61.70
2018-03-30T11:17:39.767Z,60.90
2018-03-30T11:20:05.748Z,60.90
2018-03-30T11:22:31.893Z,61.40
2018-03-30T11:24:57.868Z,60.90
2018-03-30T11:27:23.862Z,61.40
2018-03-30T11:29:49.832Z,61.10
2018-03-30T11:32:15.819Z,59.20
2018-03-30T11:34:41.783Z,60.40
2018-03-30T11:37:07.781Z,60.40
2018-03-30T11:39:33.799Z,60.10
2018-03-30T11:41:59.794Z,60.40
2018-03-30T11:44:25.806Z,59.40
2018-03-30T11:46:51.799Z,59.50
2018-03-30T11:49:17.787Z,59.40
2018-03-30T11:51:44.535Z,59.50
2018-03-30T11:54:10.565Z,59.60
2018-03-30T11:56:36.567Z,58.50
2018-03-30T11:59:03.327Z,59.30
2018-03-30T12:01:29.328Z,59.40
2018-03-30T12:03:56.066Z,58.50
2018-03-30T12:06:22.795Z,58.30
2018-03-30T12:08:48.795Z,58.30
2018-03-30T12:11:14.787Z,57.80
2018-03-30T12:13:40.820Z,58.10
2018-03-30T12:16:06.801Z,57.70
2018-03-30T12:18:33.530Z,58.00
2018-03-30T12:20:59.518Z,57.30
2018-03-30T12:23:25.510Z,58.70
2018-03-30T12:25:51.515Z,58.10
2018-03-30T12:28:18.259Z,57.60
2018-03-30T12:30:44.992Z,56.50
2018-03-30T12:33:11.722Z,56.60
2018-03-30T12:35:38.459Z,55.90
2018-03-30T12:38:05.198Z,55.30
2018-03-30T12:40:31.202Z,55.30
2018-03-30T12:42:57.199Z,55.90
2018-03-30T12:45:23.166Z,56.30
2018-03-30T12:47:49.143Z,56.20
2018-03-30T12:50:15.207Z,56.20
2018-03-30T12:52:41.214Z,56.10
2018-03-30T12:55:07.181Z,55.00
2018-03-30T12:57:33.898Z,55.10
2018-03-30T12:59:59.860Z,55.20
2018-03-30T13:02:25.841Z,54.10
2018-03-30T13:04:51.822Z,54.50
2018-03-30T13:07:17.791Z,54.50
2018-03-30T13:09:43.838Z,54.60
2018-03-30T13:12:10.546Z,54.10
2018-03-30T13:14:36.543Z,54.10
2018-03-30T13:17:02.526Z,54.60
2018-03-30T13:19:28.522Z,54.20
2018-03-30T13:21:54.546Z,53.40
2018-03-30T13:24:20.543Z,55.00
2018-03-30T13:26:46.513Z,62.30
2018-03-30T13:29:13.259Z,55.30
2018-03-30T13:31:39.254Z,55.70
2018-03-30T13:34:05.273Z,51.90
2018-03-30T13:36:31.234Z,49.20
2018-03-30T13:38:57.223Z,47.10
2018-03-30T13:41:23.960Z,48.40
2018-03-30T13:43:49.966Z,48.40
2018-03-30T13:46:15.946Z,50.40
2018-03-30T13:48:42.048Z,51.00
2018-03-30T13:51:10.863Z,51.10
2018-03-30T13:53:36.880Z,51.20
2018-03-30T13:56:06.431Z,49.80
2018-03-30T13:58:33.403Z,49.90
2018-03-30T14:01:00.390Z,50.10
2018-03-30T14:03:26.646Z,49.10
2018-03-30T14:05:56.202Z,49.30
2018-03-30T14:08:31.916Z,49.20
2018-03-30T14:10:58.133Z,50.30
2018-03-30T14:13:24.119Z,50.70
2018-03-30T14:15:50.847Z,48.80
2018-03-30T14:18:27.019Z,48.90
2018-03-30T14:20:53.856Z,48.50
2018-03-30T14:23:20.652Z,48.50
2018-03-30T14:25:46.852Z,49.20
2018-03-30T14:28:12.868Z,50.20
2018-03-30T14:30:48.895Z,49.60
2018-03-30T14:33:20.586Z,47.10
2018-03-30T14:35:48.546Z,47.10
2018-03-30T14:38:27.020Z,46.70
2018-03-30T14:40:53.018Z,46.70
2018-03-30T14:43:19.816Z,47.30
2018-03-30T14:45:49.719Z,47.50
2018-03-30T14:48:15.710Z,47.70
2018-03-30T14:50:42.115Z,48.20
2018-03-30T14:53:10.177Z,47.60
2018-03-30T14:55:48.074Z,48.30
2018-03-30T14:58:14.923Z,47.50
2018-03-30T15:00:40.986Z,47.30
2018-03-30T15:03:06.982Z,48.30
2018-03-30T15:05:35.007Z,46.40
2018-03-30T15:08:04.767Z,47.90
2018-03-30T15:10:30.791Z,48.60
2018-03-30T15:12:58.603Z,47.00
2018-03-30T15:15:40.307Z,46.70
2018-03-30T15:18:11.251Z,46.70
2018-03-30T15:20:37.265Z,46.60
2018-03-30T15:23:07.247Z,46.70
2018-03-30T15:25:33.272Z,46.60
2018-03-30T15:28:00.099Z,46.90
2018-03-30T15:30:42.945Z,48.80
2018-03-30T15:33:09.684Z,47.00
2018-03-30T15:35:38.243Z,46.90
2018-03-30T15:38:04.238Z,46.80
2018-03-30T15:40:30.240Z,48.50
2018-03-30T15:42:57.219Z,48.10
2018-03-30T15:45:23.236Z,48.20
2018-03-30T15:47:49.231Z,48.70
2018-03-30T15:50:15.270Z,48.40
2018-03-30T15:52:42.178Z,48.60
2018-03-30T15:55:08.967Z,48.60
2018-03-30T15:57:34.982Z,48.50
2018-03-30T16:00:16.815Z,47.80
2018-03-30T16:02:42.892Z,49.30
2018-03-30T16:05:09.014Z,48.70
2018-03-30T16:07:35.012Z,48.40
2018-03-30T16:10:12.091Z,47.80
2018-03-30T16:12:38.095Z,47.10
2018-03-30T16:15:04.134Z,46.90
2018-03-30T16:17:30.135Z,48.10
2018-03-30T16:19:56.071Z,48.30
2018-03-30T16:22:22.007Z,47.10
2018-03-30T16:24:49.811Z,49.40
2018-03-30T16:27:15.947Z,49.00
2018-03-30T16:29:42.689Z,48.40
2018-03-30T16:32:08.782Z,48.40
2018-03-30T16:34:35.986Z,49.50
2018-03-30T16:37:02.884Z,49.40
2018-03-30T16:39:29.258Z,50.10
2018-03-30T16:41:55.494Z,49.70
2018-03-30T16:44:22.206Z,50.80
2018-03-30T16:46:48.158Z,50.90
2018-03-30T16:49:14.085Z,50.30
2018-03-30T16:51:40.059Z,50.90
2018-03-30T16:54:05.999Z,51.00
2018-03-30T16:56:31.946Z,50.70
2018-03-30T16:58:57.878Z,49.80
2018-03-30T17:01:23.823Z,51.10
2018-03-30T17:03:50.506Z,51.90
2018-03-30T17:06:16.447Z,51.90
2018-03-30T17:08:42.395Z,51.50
2018-03-30T17:11:08.334Z,51.70
2018-03-30T17:13:35.031Z,51.50
2018-03-30T17:16:00.983Z,51.50
2018-03-30T17:18:27.962Z,52.00
2018-03-30T17:20:53.898Z,51.90
2018-03-30T17:23:19.866Z,54.20
2018-03-30T17:25:45.820Z,54.30
2018-03-30T17:28:11.759Z,54.30
2018-03-30T17:30:37.691Z,54.60
2018-03-30T17:33:03.660Z,55.00
2018-03-30T17:35:30.360Z,55.30
2018-03-30T17:37:57.094Z,55.50
2018-03-30T17:40:23.078Z,55.60
2018-03-30T17:42:49.751Z,57.30
2018-03-30T17:45:15.675Z,57.40
2018-03-30T17:47:41.900Z,56.70
2018-03-30T17:50:07.951Z,56.60
2018-03-30T17:52:33.866Z,58.40
2018-03-30T17:54:59.830Z,58.20
2018-03-30T17:57:25.755Z,58.60
2018-03-30T17:59:51.707Z,58.60
2018-03-30T18:02:17.780Z,58.50
2018-03-30T18:04:43.723Z,58.70
2018-03-30T18:07:10.390Z,59.20
2018-03-30T18:09:36.327Z,59.20
2018-03-30T18:12:02.315Z,59.20
2018-03-30T18:14:28.255Z,59.60
2018-03-30T18:16:54.178Z,60.60
2018-03-30T18:19:20.118Z,60.90
2018-03-30T18:21:46.395Z,59.80
2018-03-30T18:24:13.270Z,60.30
2018-03-30T18:26:39.534Z,60.40
2018-03-30T18:29:05.845Z,59.90
2018-03-30T18:31:31.862Z,60.00
2018-03-30T18:33:57.911Z,60.00
2018-03-30T18:36:23.879Z,60.40
2018-03-30T18:38:50.548Z,62.00
2018-03-30T18:41:16.487Z,62.00
2018-03-30T18:43:42.443Z,61.70
2018-03-30T18:46:08.438Z,61.10
2018-03-30T18:48:34.379Z,60.90
2018-03-30T18:51:00.342Z,61.90
2018-03-30T18:53:27.003Z,61.50
2018-03-30T18:55:52.955Z,61.50
2018-03-30T18:58:18.884Z,62.00
2018-03-30T19:00:44.831Z,61.90
2018-03-30T19:03:10.736Z,62.30
2018-03-30T19:05:37.435Z,62.50
2018-03-30T19:08:03.342Z,62.50
2018-03-30T19:10:29.308Z,62.40
2018-03-30T19:12:55.243Z,63.10
2018-03-30T19:15:21.924Z,62.60
2018-03-30T19:17:47.883Z,62.70
2018-03-30T19:20:13.920Z,62.80
2018-03-30T19:22:39.918Z,63.30
2018-03-30T19:25:05.876Z,63.90
2018-03-30T19:27:32.579Z,63.10
2018-03-30T19:29:58.518Z,63.10
2018-03-30T19:32:24.478Z,63.60
2018-03-30T19:34:50.419Z,63.20
2018-03-30T19:37:16.376Z,63.30
2018-03-30T19:39:42.303Z,63.30
2018-03-30T19:42:08.255Z,63.30
2018-03-30T19:44:35.030Z,63.40
2018-03-30T19:47:00.997Z,63.40
2018-03-30T19:49:26.925Z,63.40
2018-03-30T19:51:52.871Z,64.20
2018-03-30T19:54:19.542Z,64.50
2018-03-30T19:56:45.474Z,64.60
2018-03-30T19:59:11.390Z,64.40
2018-03-30T20:01:37.418Z,64.40
2018-03-30T20:04:03.356Z,64.30
2018-03-30T20:06:29.323Z,64.50
2018-03-30T20:08:55.979Z,64.40
2018-03-30T20:11:21.979Z,64.40
2018-03-30T20:13:47.899Z,64.30
2018-03-30T20:16:14.571Z,64.40
2018-03-30T20:18:40.518Z,64.40
2018-03-30T20:21:06.442Z,64.30
2018-03-30T20:23:32.372Z,64.40
2018-03-30T20:25:58.310Z,65.40
2018-03-30T20:28:24.251Z,65.50
2018-03-30T20:30:50.914Z,64.70
2018-03-30T20:33:16.844Z,64.70
2018-03-30T20:35:42.777Z,64.40
2018-03-30T20:38:08.719Z,65.10
2018-03-30T20:40:34.753Z,65.00
2018-03-30T20:43:00.708Z,65.80
2018-03-30T20:45:26.635Z,65.80
2018-03-30T20:47:52.574Z,65.60
2018-03-30T20:50:18.528Z,66.20
2018-03-30T20:52:44.485Z,65.90
2018-03-30T20:55:11.163Z,65.90
2018-03-30T20:57:37.119Z,66.00
2018-03-30T21:00:03.054Z,65.80
2018-03-30T21:02:29.743Z,66.30
2018-03-30T21:04:55.674Z,65.70
2018-03-30T21:07:21.611Z,66.00
2018-03-30T21:09:47.570Z,66.20
2018-03-30T21:12:14.230Z,65.20
2018-03-30T21:14:41.270Z,65.00
2018-03-30T21:17:07.462Z,65.00
2018-03-30T21:19:33.413Z,65.50
2018-03-30T21:22:00.079Z,64.20
2018-03-30T21:24:26.002Z,64.30
2018-03-30T21:26:51.982Z,64.80
2018-03-30T21:29:19.433Z,64.10
2018-03-30T21:31:45.383Z,64.00
2018-03-30T21:34:12.067Z,64.70
2018-03-30T21:36:38.039Z,64.70
2018-03-30T21:39:04.852Z,64.50
2018-03-30T21:41:31.603Z,64.90
2018-03-30T21:43:57.704Z,65.00
2018-03-30T21:46:23.651Z,65.50
2018-03-30T21:48:49.584Z,64.70
2018-03-30T21:51:16.288Z,64.90
2018-03-30T21:53:42.280Z,65.00
2018-03-30T21:56:08.287Z,64.20
2018-03-30T21:58:34.216Z,64.40
2018-03-30T22:01:00.165Z,64.70
2018-03-30T22:03:26.137Z,64.10
2018-03-30T22:05:52.834Z,65.30
2018-03-30T22:08:18.775Z,64.60
2018-03-30T22:10:44.743Z,64.60
2018-03-30T22:13:10.768Z,64.60
2018-03-30T22:15:36.767Z,64.90
2018-03-30T22:18:02.759Z,64.40
2018-03-30T22:20:28.722Z,65.00
2018-03-30T22:22:55.407Z,64.70
2018-03-30T22:25:21.378Z,64.70
2018-03-30T22:27:47.371Z,64.80
2018-03-30T22:30:13.344Z,64.70
2018-03-30T22:32:39.310Z,64.90
2018-03-30T22:35:05.232Z,64.10
2018-03-30T22:37:31.215Z,64.00
2018-03-30T22:39:57.178Z,64.50
2018-03-30T22:42:23.143Z,64.90
2018-03-30T22:44:49.815Z,65.40
2018-03-30T22:47:15.767Z,65.40
2018-03-30T22:49:41.703Z,65.60
2018-03-30T22:52:07.860Z,65.30
2018-03-30T22:54:33.791Z,64.80
2018-03-30T22:56:59.747Z,64.50
2018-03-30T22:59:25.688Z,64.00
2018-03-30T23:01:51.636Z,64.80
2018-03-30T23:04:18.306Z,64.90
2018-03-30T23:06:44.254Z,64.90
2018-03-30T23:09:10.197Z,64.80
2018-03-30T23:11:36.147Z,65.30
2018-03-30T23:14:02.276Z,64.90
2018-03-30T23:16:28.278Z,65.10
2018-03-30T23:18:54.955Z,65.80
2018-03-30T23:21:20.919Z,65.10
2018-03-30T23:23:46.870Z,65.90
2018-03-30T23:26:13.563Z,66.20
2018-03-30T23:28:39.587Z,65.90
2018-03-30T23:31:05.551Z,65.20
2018-03-30T23:33:32.255Z,65.90
2018-03-30T23:35:58.217Z,65.90
2018-03-30T23:38:24.903Z,65.80
2018-03-30T23:40:50.840Z,65.80
2018-03-30T23:43:16.792Z,65.40
2018-03-30T23:45:43.475Z,66.40
2018-03-30T23:48:09.431Z,65.70
2018-03-30T23:50:35.370Z,65.60
2018-03-30T23:53:01.343Z,65.40
2018-03-30T23:55:27.263Z,65.70
2018-03-30T23:57:53.234Z,65.30
